This is the latest recevied weather packets stored in our database for station/object 9M4GEK-3. If no packets are shown the sender has not sent any weather packets the latest 10 day(s).
| Time | Temp. | Humidity | Pressure | Rain* | Wind** | Luminosity | Snow |
|---|---|---|---|---|---|---|---|
| 1777527661 | 42.78° C | 34% | 1007.4 hPa | - | - | - | - |
| 1777526761 | 42.22° C | 35% | 1007.7 hPa | - | - | - | - |
| 1777525957 | 40.56° C | 36% | 1008.1 hPa | - | - | - | - |
| 1777525861 | 40.56° C | 36% | 1008.1 hPa | - | - | - | - |
| 1777524961 | 40.56° C | 36% | 1008.5 hPa | - | - | - | - |
| 1777524097 | 40° C | 37% | 1008.7 hPa | - | - | - | - |
| 1777524061 | 40° C | 37% | 1008.7 hPa | - | - | - | - |
| 1777523161 | 43.89° C | 32% | 1008.9 hPa | - | - | - | - |
| 1777522262 | 44.44° C | 34% | 1009.2 hPa | - | - | - | - |
| 1777521456 | 42.78° C | 34% | 1009.3 hPa | - | - | - | - |
| 1777521361 | 42.78° C | 34% | 1009.3 hPa | - | - | - | - |
| 1777520461 | 42.78° C | 36% | 1009.5 hPa | - | - | - | - |
| 1777519561 | 41.11° C | 39% | 1009.5 hPa | - | - | - | - |
| 1777518660 | 40.56° C | 40% | 1009.6 hPa | - | - | - | - |
| 1777517837 | 38.89° C | 43% | 1009.7 hPa | - | - | - | - |
| 1777517760 | 38.89° C | 43% | 1009.7 hPa | - | - | - | - |
| 1777516859 | 39.44° C | 42% | 1009.6 hPa | - | - | - | - |
| 1777515959 | 38.33° C | 45% | 1009.5 hPa | - | - | - | - |
| 1777515059 | 37.22° C | 47% | 1009.5 hPa | - | - | - | - |
| 1777514158 | 37.78° C | 47% | 1009.4 hPa | - | - | - | - |
| 1777513259 | 38.33° C | 47% | 1009.4 hPa | - | - | - | - |
| 1777512408 | 37.78° C | 49% | 1009.2 hPa | - | - | - | - |
| 1777512357 | 37.78° C | 49% | 1009.2 hPa | - | - | - | - |
| 1777511456 | 35.56° C | 57% | 1009.2 hPa | - | - | - | - |
| 1777510597 | 33.33° C | 61% | 1008.9 hPa | - | - | - | - |
* Rain since midnight (hover to see other rain measurements)
** Current wind speed in m/s (hover to see current wind gust speed)